Time;durP1;ratioP1;P1;durP2;ratioP2;P2;SDS_P1;SDS_P2;PMS_P1;PMS_P2;Temp;Humidity;BMP_temperature;BMP_pressure;BME280_temperature;BME280_humidity;BME280_pressure;Samples;Min_cycle;Max_cycle;Signal;HPM_P1;HPM_P2
2021/12/30 00:00:06;;;;;;;87.45;50.10;;;;;;;2.87;100.00;98303.38;2144035;83;20956;-83
2021/12/30 00:03:09;;;;;;;90.77;50.17;;;;;;;2.92;100.00;98307.63;2143938;83;21034;-83
2021/12/30 00:06:10;;;;;;;94.62;52.40;;;;;;;2.89;100.00;98319.55;2144102;83;21501;-83
2021/12/30 00:09:10;;;;;;;103.65;55.55;;;;;;;2.87;100.00;98317.59;2143978;83;20943;-83
2021/12/30 00:12:11;;;;;;;101.80;57.43;;;;;;;2.87;100.00;98321.48;2143766;83;21042;-84
2021/12/30 00:15:12;;;;;;;100.67;55.65;;;;;;;2.89;100.00;98324.73;2144693;83;20979;-80
2021/12/30 00:18:12;;;;;;;97.27;53.35;;;;;;;2.93;100.00;98322.70;2144135;83;21079;-83
2021/12/30 00:21:13;;;;;;;101.10;57.85;;;;;;;2.86;100.00;98330.19;2144207;83;21066;-79
2021/12/30 00:24:14;;;;;;;104.15;58.28;;;;;;;2.79;100.00;98330.41;2146606;83;20979;-80
2021/12/30 00:27:15;;;;;;;99.70;55.12;;;;;;;2.80;100.00;98326.86;2146599;83;21660;-77
2021/12/30 00:30:16;;;;;;;109.52;59.58;;;;;;;2.80;100.00;98331.55;2130577;83;21039;-83
2021/12/30 00:33:16;;;;;;;98.97;54.83;;;;;;;2.80;100.00;98336.73;2120244;84;21105;-81
2021/12/30 00:36:17;;;;;;;98.60;54.08;;;;;;;2.81;100.00;98344.00;2120606;83;21048;-83
2021/12/30 00:39:18;;;;;;;100.50;50.78;;;;;;;2.78;100.00;98337.34;2120594;83;21036;-81
2021/12/30 00:42:19;;;;;;;99.03;54.10;;;;;;;2.79;100.00;98335.09;2120385;83;21558;-82
2021/12/30 00:45:20;;;;;;;108.03;57.45;;;;;;;2.73;100.00;98344.69;2120147;83;21030;-83
2021/12/30 00:48:20;;;;;;;99.50;53.23;;;;;;;2.69;100.00;98349.81;2120133;84;20953;-83
2021/12/30 00:51:21;;;;;;;102.58;53.90;;;;;;;2.66;100.00;98357.05;2120126;83;20992;-84
2021/12/30 00:54:23;;;;;;;100.97;53.58;;;;;;;2.64;100.00;98360.22;2120139;83;20992;-83
2021/12/30 00:57:24;;;;;;;100.27;55.43;;;;;;;2.56;100.00;98351.41;2120105;83;21007;-82
2021/12/30 01:00:25;;;;;;;96.95;51.77;;;;;;;2.59;100.00;98350.78;2120121;83;20964;-82
2021/12/30 01:03:27;;;;;;;105.92;54.67;;;;;;;2.61;100.00;98350.98;2120118;83;21131;-83
2021/12/30 01:06:28;;;;;;;103.25;58.20;;;;;;;2.58;100.00;98353.84;2120020;83;20977;-80
2021/12/30 01:09:29;;;;;;;100.55;54.63;;;;;;;2.62;100.00;98342.75;2120131;84;21060;-82
2021/12/30 01:12:30;;;;;;;99.62;54.50;;;;;;;2.65;100.00;98333.41;2119980;83;21000;-82
2021/12/30 01:15:45;;;;;;;91.60;50.85;;;;;;;2.61;100.00;98343.23;2120094;83;20999;-83
2021/12/30 01:18:55;;;;;;;96.50;55.88;;;;;;;2.62;100.00;98342.75;2121531;82;21015;-82
2021/12/30 01:21:45;;;;;;;102.60;56.68;;;;;;;2.55;100.00;98345.05;2122504;83;21024;-82
2021/12/30 01:24:45;;;;;;;110.28;60.00;;;;;;;2.60;100.00;98354.52;2120116;84;21519;-81
2021/12/30 01:27:46;;;;;;;105.07;56.48;;;;;;;2.64;100.00;98363.62;2120262;83;21056;-82
2021/12/30 01:30:48;;;;;;;101.38;55.60;;;;;;;2.68;100.00;98365.47;2119816;83;21044;-83
2021/12/30 01:33:49;;;;;;;102.22;54.50;;;;;;;2.75;100.00;98360.91;2120028;84;21107;-83
2021/12/30 01:36:50;;;;;;;95.30;52.27;;;;;;;2.81;100.00;98363.39;2120168;84;21016;-83
2021/12/30 01:39:53;;;;;;;92.57;48.10;;;;;;;2.86;100.00;98361.22;2120073;83;20956;-82
2021/12/30 01:42:53;;;;;;;86.97;48.23;;;;;;;2.91;100.00;98362.08;2120177;83;20996;-84
2021/12/30 01:45:54;;;;;;;85.28;46.18;;;;;;;2.95;100.00;98359.09;2120224;83;20999;-84
2021/12/30 01:48:55;;;;;;;81.00;46.15;;;;;;;3.02;100.00;98356.77;2120165;83;21047;-84
2021/12/30 01:51:56;;;;;;;82.25;44.95;;;;;;;3.08;100.00;98357.48;2120095;84;21558;-84
2021/12/30 01:54:57;;;;;;;76.42;45.00;;;;;;;3.12;100.00;98359.66;2120515;84;20976;-83
2021/12/30 01:57:58;;;;;;;79.12;44.25;;;;;;;3.13;100.00;98354.02;2119906;84;21046;-83
2021/12/30 02:00:59;;;;;;;83.92;43.90;;;;;;;3.09;100.00;98342.30;2119944;83;20988;-83
2021/12/30 02:03:59;;;;;;;79.10;43.15;;;;;;;3.02;100.00;98351.59;2120083;83;20968;-83
2021/12/30 02:07:00;;;;;;;80.05;41.88;;;;;;;2.93;100.00;98351.95;2120100;83;21001;-83
2021/12/30 02:10:02;;;;;;;73.00;40.03;;;;;;;2.91;100.00;98344.80;2120171;84;20996;-84
2021/12/30 02:13:03;;;;;;;72.37;39.08;;;;;;;2.91;100.00;98346.56;2119971;83;21098;-83
2021/12/30 02:16:04;;;;;;;72.72;39.90;;;;;;;2.83;100.00;98341.64;2120188;83;20972;-82
2021/12/30 02:19:05;;;;;;;71.17;38.45;;;;;;;2.76;100.00;98352.67;2120016;84;21007;-82
2021/12/30 02:22:05;;;;;;;69.87;37.67;;;;;;;2.72;100.00;98348.23;2120079;83;20992;-83
2021/12/30 02:25:06;;;;;;;68.60;38.63;;;;;;;2.71;100.00;98360.83;2119954;84;20980;-83
2021/12/30 02:28:07;;;;;;;69.87;40.50;;;;;;;2.76;100.00;98357.84;2120154;83;21042;-83
2021/12/30 02:31:08;;;;;;;75.28;43.10;;;;;;;2.77;100.00;98367.23;2119627;83;21047;-83
2021/12/30 02:34:08;;;;;;;79.22;41.60;;;;;;;2.77;100.00;98377.09;2120224;83;21500;-83
2021/12/30 02:37:11;;;;;;;75.52;42.73;;;;;;;2.79;100.00;98371.78;2120051;83;21035;-84
2021/12/30 02:40:11;;;;;;;72.30;40.38;;;;;;;2.79;100.00;98368.71;2120091;83;21051;-83
2021/12/30 02:43:12;;;;;;;74.75;38.78;;;;;;;2.81;100.00;98365.98;2120115;83;21004;-83
2021/12/30 02:46:13;;;;;;;59.67;35.05;;;;;;;2.71;100.00;98345.31;2119948;83;21027;-83
2021/12/30 02:49:14;;;;;;;74.82;38.50;;;;;;;2.71;100.00;98345.31;2119899;83;20948;-83
2021/12/30 02:52:14;;;;;;;60.40;34.85;;;;;;;2.79;100.00;98363.54;2119999;83;20976;-84
2021/12/30 02:55:15;;;;;;;64.87;34.92;;;;;;;2.81;100.00;98347.41;2120049;83;20987;-84
2021/12/30 02:58:16;;;;;;;61.92;33.75;;;;;;;2.85;100.00;98345.38;2120052;83;21487;-83
2021/12/30 03:01:17;;;;;;;61.53;35.08;;;;;;;2.89;100.00;98340.73;2120040;84;21003;-83
2021/12/30 03:04:18;;;;;;;53.52;30.60;;;;;;;2.99;100.00;98344.09;2119930;83;20976;-84
2021/12/30 03:07:18;;;;;;;55.90;33.80;;;;;;;3.01;100.00;98340.41;2120072;83;20953;-84
2021/12/30 03:10:19;;;;;;;58.00;31.48;;;;;;;3.00;100.00;98342.66;2120185;83;20960;-83
2021/12/30 03:13:29;;;;;;;52.55;31.42;;;;;;;2.98;100.00;98343.28;2120097;83;20980;-84
2021/12/30 03:16:23;;;;;;;52.08;30.97;;;;;;;2.96;100.00;98345.68;2121536;82;21036;-83
2021/12/30 03:19:23;;;;;;;58.15;32.65;;;;;;;2.92;100.00;98354.18;2120223;84;21067;-83
2021/12/30 03:22:24;;;;;;;52.50;30.82;;;;;;;2.89;100.00;98358.83;2120286;83;20952;-84
2021/12/30 03:25:25;;;;;;;50.48;28.73;;;;;;;2.88;100.00;98365.77;2120706;83;21063;-83
2021/12/30 03:28:26;;;;;;;50.23;29.10;;;;;;;2.85;100.00;98374.63;2120218;84;20983;-83
2021/12/30 03:31:27;;;;;;;46.35;27.02;;;;;;;2.86;100.00;98375.45;2137703;83;21086;-82
2021/12/30 03:34:27;;;;;;;52.38;28.57;;;;;;;2.83;100.00;98375.26;2144046;83;21514;-83
2021/12/30 03:37:28;;;;;;;54.10;29.80;;;;;;;2.87;100.00;98384.83;2143866;83;21008;-82
2021/12/30 03:40:29;;;;;;;41.20;25.50;;;;;;;2.89;100.00;98383.39;2144205;83;21485;-82
2021/12/30 03:43:30;;;;;;;61.85;31.95;;;;;;;2.90;100.00;98394.08;2143966;83;20967;-83
2021/12/30 03:46:30;;;;;;;52.75;30.30;;;;;;;2.89;100.00;98406.19;2143896;83;20956;-82
2021/12/30 03:49:31;;;;;;;50.73;29.45;;;;;;;2.89;100.00;98407.97;2143992;83;20983;-82
2021/12/30 03:52:32;;;;;;;49.67;29.15;;;;;;;2.87;100.00;98408.59;2144158;83;21007;-83
2021/12/30 03:55:33;;;;;;;47.03;27.75;;;;;;;2.87;100.00;98408.11;2143883;83;21042;-83
2021/12/30 03:58:34;;;;;;;47.65;26.87;;;;;;;2.91;100.00;98411.22;2144106;83;21042;-83
2021/12/30 04:01:34;;;;;;;47.67;28.40;;;;;;;2.91;100.00;98413.81;2144045;83;21007;-82
2021/12/30 04:04:35;;;;;;;45.05;27.77;;;;;;;2.90;100.00;98410.88;2144004;83;21522;-84
2021/12/30 04:07:36;;;;;;;46.48;28.20;;;;;;;2.90;100.00;98414.77;2144018;83;20979;-83
2021/12/30 04:10:37;;;;;;;48.25;27.50;;;;;;;2.87;100.00;98419.75;2143994;83;20967;-83
2021/12/30 04:13:38;;;;;;;51.80;28.95;;;;;;;2.85;100.00;98413.90;2144039;83;21047;-83
2021/12/30 04:16:38;;;;;;;50.35;28.62;;;;;;;2.84;100.00;98414.38;2144044;83;21447;-83
2021/12/30 04:19:39;;;;;;;44.42;26.45;;;;;;;2.83;100.00;98414.05;2143869;83;20998;-83
2021/12/30 04:22:40;;;;;;;47.03;26.85;;;;;;;2.84;100.00;98414.38;2143634;83;20971;-82
2021/12/30 04:25:41;;;;;;;48.70;27.75;;;;;;;2.87;100.00;98413.76;2143942;83;21046;-81
2021/12/30 04:28:41;;;;;;;64.77;34.95;;;;;;;2.88;100.00;98429.13;2143977;83;20995;-87
2021/12/30 04:31:42;;;;;;;69.17;34.85;;;;;;;2.92;100.00;98427.08;2141983;83;21527;-82
2021/12/30 04:34:43;;;;;;;57.73;30.37;;;;;;;2.94;100.00;98432.95;2141668;83;21030;-84
2021/12/30 04:37:44;;;;;;;55.52;29.37;;;;;;;2.93;100.00;98439.08;2141816;82;21451;-82
2021/12/30 04:40:45;;;;;;;46.48;26.48;;;;;;;2.97;100.00;98441.72;2141843;82;20979;-82
2021/12/30 04:43:46;;;;;;;52.70;27.67;;;;;;;2.99;100.00;98456.13;2141623;83;21026;-82
2021/12/30 04:46:46;;;;;;;43.38;27.87;;;;;;;2.95;100.00;98456.56;2141655;83;20994;-82
2021/12/30 04:49:49;;;;;;;48.95;26.12;;;;;;;2.95;100.00;98465.61;2141990;82;21031;-82
2021/12/30 04:52:49;;;;;;;49.23;28.52;;;;;;;2.93;100.00;98469.64;2141642;83;20998;-82
2021/12/30 04:55:50;;;;;;;47.30;25.60;;;;;;;2.92;100.00;98469.27;2141740;83;21003;-82
2021/12/30 04:58:51;;;;;;;40.70;27.05;;;;;;;2.91;100.00;98470.23;2141722;82;21011;-82
2021/12/30 05:01:52;;;;;;;48.15;26.60;;;;;;;2.87;100.00;98451.26;2141735;83;20979;-82
2021/12/30 05:04:52;;;;;;;47.23;27.02;;;;;;;2.88;100.00;98454.18;2141618;83;20987;-82
2021/12/30 05:07:53;;;;;;;49.38;26.10;;;;;;;2.91;100.00;98458.59;2141847;82;20982;-82
2021/12/30 05:10:54;;;;;;;50.08;27.02;;;;;;;2.93;100.00;98463.17;2141582;82;21008;-82
2021/12/30 05:13:55;;;;;;;49.42;27.62;;;;;;;2.99;100.00;98469.55;2141822;83;21545;-81
2021/12/30 05:17:02;;;;;;;49.93;26.27;;;;;;;3.05;100.00;98458.66;2141631;82;20967;-81
2021/12/30 05:19:58;;;;;;;42.17;25.90;;;;;;;3.08;100.00;98464.84;2142439;82;21079;-82
2021/12/30 05:22:59;;;;;;;48.70;27.50;;;;;;;3.10;100.00;98459.05;2141939;82;20959;-83
2021/12/30 05:26:00;;;;;;;44.23;28.27;;;;;;;3.13;100.00;98448.44;2141818;82;20956;-82
2021/12/30 05:29:01;;;;;;;49.83;27.90;;;;;;;3.19;100.00;98436.70;2141717;82;21043;-82
2021/12/30 05:32:02;;;;;;;46.55;27.45;;;;;;;3.23;100.00;98441.95;2143093;83;21050;-83
2021/12/30 05:35:02;;;;;;;50.65;28.77;;;;;;;3.30;100.00;98442.55;2143798;83;20956;-82
2021/12/30 05:38:03;;;;;;;47.58;28.60;;;;;;;3.31;100.00;98427.36;2143795;83;20978;-82
2021/12/30 05:41:04;;;;;;;48.28;28.52;;;;;;;3.31;100.00;98427.36;2143901;83;20987;-83
2021/12/30 05:44:05;;;;;;;44.67;26.82;;;;;;;3.38;100.00;98445.26;2144410;83;20990;-82
2021/12/30 05:47:06;;;;;;;41.10;25.72;;;;;;;3.42;100.00;98460.83;2143832;83;20990;-82
2021/12/30 05:50:07;;;;;;;48.73;28.35;;;;;;;3.39;100.00;98481.83;2143925;83;21501;-83
2021/12/30 05:53:08;;;;;;;43.28;25.88;;;;;;;3.41;100.00;98483.80;2143791;83;20979;-82
2021/12/30 05:56:09;;;;;;;44.08;27.90;;;;;;;3.40;100.00;98465.82;2143920;83;22123;-82
2021/12/30 05:59:10;;;;;;;45.35;26.62;;;;;;;3.42;100.00;98450.48;2143839;83;21030;-83
2021/12/30 06:02:10;;;;;;;47.30;27.55;;;;;;;3.43;100.00;98454.70;2143992;83;20951;-82
2021/12/30 06:05:11;;;;;;;47.60;26.42;;;;;;;3.48;100.00;98462.06;2144279;83;20985;-83
2021/12/30 06:08:12;;;;;;;49.70;27.60;;;;;;;3.45;100.00;98473.15;2144126;83;20924;-82
2021/12/30 06:11:13;;;;;;;46.98;26.93;;;;;;;3.43;100.00;98474.59;2144117;83;21038;-84
2021/12/30 06:14:14;;;;;;;44.03;26.60;;;;;;;3.34;100.00;98487.89;2144025;83;21014;-84
2021/12/30 06:17:15;;;;;;;51.37;29.45;;;;;;;3.30;100.00;98485.25;2143883;83;20951;-84
2021/12/30 06:20:16;;;;;;;52.20;29.42;;;;;;;3.23;100.00;98489.34;2143848;83;21258;-82
2021/12/30 06:23:17;;;;;;;52.83;29.87;;;;;;;3.22;100.00;98488.19;2144085;83;20983;-83
2021/12/30 06:26:18;;;;;;;53.60;30.95;;;;;;;3.21;100.00;98501.61;2143970;83;20939;-83
2021/12/30 06:29:19;;;;;;;50.38;30.32;;;;;;;3.18;100.00;98501.05;2143982;83;20950;-84
2021/12/30 06:32:20;;;;;;;52.67;30.48;;;;;;;3.24;100.00;98514.27;2143956;83;21070;-80
2021/12/30 06:35:20;;;;;;;51.73;31.25;;;;;;;3.29;100.00;98517.72;2143950;83;21543;-83
2021/12/30 06:38:21;;;;;;;53.20;31.20;;;;;;;3.32;100.00;98518.27;2143870;83;21046;-84
2021/12/30 06:41:22;;;;;;;61.13;34.08;;;;;;;3.38;100.00;98527.23;2143885;83;21026;-81
2021/12/30 06:44:23;;;;;;;66.02;34.05;;;;;;;3.43;100.00;98529.77;2143877;83;21022;-81
2021/12/30 06:47:24;;;;;;;54.33;33.53;;;;;;;3.43;100.00;98534.12;2143791;83;21006;-81
2021/12/30 06:50:30;;;;;;;48.00;30.05;;;;;;;3.39;100.00;98531.48;2143924;83;21024;-83
2021/12/30 06:53:28;;;;;;;52.78;30.55;;;;;;;3.39;100.00;98531.00;2143022;83;21538;-81
2021/12/30 06:56:28;;;;;;;54.45;32.42;;;;;;;3.39;100.00;98528.42;2143872;83;20956;-78
2021/12/30 06:59:29;;;;;;;47.95;29.23;;;;;;;3.40;100.00;98531.82;2143720;83;21038;-81
2021/12/30 07:02:30;;;;;;;50.70;28.75;;;;;;;3.33;100.00;98535.44;2143867;83;20927;-82
2021/12/30 07:05:31;;;;;;;49.85;28.70;;;;;;;3.26;100.00;98529.64;2143920;83;20971;-83
2021/12/30 07:08:32;;;;;;;53.98;32.00;;;;;;;3.27;100.00;98521.73;2143936;83;20994;-83
2021/12/30 07:11:32;;;;;;;48.23;31.30;;;;;;;3.31;100.00;98528.77;2143796;83;20996;-82
2021/12/30 07:14:33;;;;;;;48.78;30.32;;;;;;;3.35;100.00;98528.34;2143828;83;21026;-82
2021/12/30 07:17:34;;;;;;;49.27;28.65;;;;;;;3.40;100.00;98530.53;2143906;83;20983;-82
2021/12/30 07:20:35;;;;;;;54.27;29.25;;;;;;;3.49;100.00;98527.11;2143893;83;21075;-81
2021/12/30 07:23:36;;;;;;;44.30;26.75;;;;;;;3.58;100.00;98526.27;2143980;83;20951;-82
2021/12/30 07:26:36;;;;;;;44.60;28.83;;;;;;;3.62;100.00;98524.20;2143916;83;20990;-82
2021/12/30 07:29:37;;;;;;;45.05;26.12;;;;;;;3.63;100.00;98523.25;2143772;83;20986;-82
2021/12/30 07:32:38;;;;;;;46.77;28.27;;;;;;;3.64;100.00;98525.69;2143759;83;21032;-82
2021/12/30 07:35:39;;;;;;;45.70;27.93;;;;;;;3.67;100.00;98528.02;2144339;83;21030;-85
2021/12/30 07:38:40;;;;;;;42.98;27.77;;;;;;;3.73;100.00;98529.70;2143741;83;21006;-83
2021/12/30 07:41:41;;;;;;;49.00;27.82;;;;;;;3.81;100.00;98539.69;2144010;83;22189;-83
2021/12/30 07:44:42;;;;;;;45.17;27.93;;;;;;;3.85;100.00;98559.67;2143790;83;21030;-85
2021/12/30 07:47:43;;;;;;;44.03;26.37;;;;;;;3.91;100.00;98550.02;2143965;83;21434;-84
2021/12/30 07:50:43;;;;;;;44.88;28.17;;;;;;;3.95;100.00;98557.38;2143964;83;21519;-84
2021/12/30 07:53:44;;;;;;;47.48;29.90;;;;;;;3.96;100.00;98559.02;2144116;83;20959;-84
2021/12/30 07:56:45;;;;;;;43.45;28.00;;;;;;;3.98;100.00;98563.57;2144308;83;21060;-81
2021/12/30 07:59:46;;;;;;;43.73;28.40;;;;;;;4.02;100.00;98560.20;2146199;83;20971;-80
2021/12/30 08:02:47;;;;;;;46.37;28.75;;;;;;;4.03;100.00;98559.27;2146670;83;20986;-79
2021/12/30 08:05:49;;;;;;;44.42;28.30;;;;;;;4.08;100.00;98560.13;2145574;83;21041;-84
2021/12/30 08:08:50;;;;;;;41.05;26.33;;;;;;;4.12;100.00;98540.28;2144496;83;20987;-84
2021/12/30 08:11:51;;;;;;;40.67;25.60;;;;;;;4.18;100.00;98533.70;2144519;83;20991;-81
2021/12/30 08:14:51;;;;;;;39.92;24.55;;;;;;;4.23;100.00;98528.91;2144595;83;21034;-83
2021/12/30 08:17:54;;;;;;;39.18;23.95;;;;;;;4.35;100.00;98527.75;2144739;83;20986;-87
2021/12/30 08:20:56;;;;;;;40.38;25.80;;;;;;;4.45;100.00;98525.10;2144288;83;20979;-86
2021/12/30 08:23:57;;;;;;;37.23;24.70;;;;;;;4.49;100.00;98522.09;2144263;83;21107;-86
2021/12/30 08:27:02;;;;;;;37.73;23.77;;;;;;;4.51;100.00;98524.05;2144232;83;20972;-81
2021/12/30 08:30:00;;;;;;;39.53;23.67;;;;;;;4.49;100.00;98527.28;2142701;83;20986;-85
2021/12/30 08:33:01;;;;;;;37.65;21.85;;;;;;;4.48;100.00;98534.72;2144017;83;20983;-85
2021/12/30 08:36:02;;;;;;;36.55;23.73;;;;;;;4.46;100.00;98546.17;2144310;83;20991;-86
2021/12/30 08:39:03;;;;;;;35.68;24.02;;;;;;;4.40;100.00;98545.48;2144055;83;21081;-85
2021/12/30 08:42:04;;;;;;;41.80;26.33;;;;;;;4.40;100.00;98555.84;2144055;83;21454;-84
2021/12/30 08:45:05;;;;;;;38.73;26.17;;;;;;;4.41;100.00;98554.88;2144180;83;20971;-85
2021/12/30 08:48:05;;;;;;;42.67;24.77;;;;;;;4.40;100.00;98545.48;2144119;83;21038;-83
2021/12/30 08:51:06;;;;;;;42.48;26.07;;;;;;;4.44;100.00;98542.44;2144326;83;20979;-85
2021/12/30 08:54:07;;;;;;;41.70;28.20;;;;;;;4.50;100.00;98539.76;2144944;83;21058;-81
2021/12/30 08:57:08;;;;;;;40.05;26.82;;;;;;;4.59;100.00;98542.78;2144525;83;21458;-86
2021/12/30 09:00:09;;;;;;;36.73;26.00;;;;;;;4.71;100.00;98548.56;2144084;83;20983;-87
2021/12/30 09:03:10;;;;;;;36.70;25.23;;;;;;;4.80;100.00;98549.80;2144129;83;21034;-84
2021/12/30 09:06:11;;;;;;;33.92;22.55;;;;;;;4.89;100.00;98551.18;2144140;83;21057;-84
2021/12/30 09:09:12;;;;;;;37.10;24.45;;;;;;;4.97;100.00;98559.05;2144102;83;21450;-87
2021/12/30 09:12:13;;;;;;;34.40;24.60;;;;;;;4.97;100.00;98557.27;2144176;83;21066;-84
2021/12/30 09:15:14;;;;;;;38.98;26.05;;;;;;;4.97;100.00;98568.13;2144423;83;20983;-86
2021/12/30 09:18:15;;;;;;;41.58;26.75;;;;;;;4.93;100.00;98558.51;2144121;83;21043;-83
2021/12/30 09:21:16;;;;;;;44.53;24.85;;;;;;;4.91;100.00;98568.23;2144111;83;20990;-89
2021/12/30 09:24:16;;;;;;;39.33;25.37;;;;;;;4.88;100.00;98567.23;2144278;83;21043;-84
2021/12/30 09:27:17;;;;;;;42.65;25.80;;;;;;;4.92;100.00;98560.77;2144379;83;21018;-86
2021/12/30 09:30:18;;;;;;;41.08;27.17;;;;;;;5.00;100.00;98564.75;2144063;83;21510;-88
2021/12/30 09:33:19;;;;;;;37.90;26.02;;;;;;;5.09;100.00;98565.64;2144042;83;21021;-85
2021/12/30 09:36:20;;;;;;;42.85;28.00;;;;;;;5.32;100.00;98556.45;2144389;83;21006;-86
2021/12/30 09:39:21;;;;;;;37.95;25.75;;;;;;;5.32;100.00;98556.45;2144439;83;21478;-88
2021/12/30 09:42:22;;;;;;;49.73;30.12;;;;;;;5.50;100.00;98559.52;2144263;83;21010;-86
2021/12/30 09:45:23;;;;;;;49.95;32.60;;;;;;;5.68;100.00;98558.99;2144204;83;20971;-84
2021/12/30 09:48:25;;;;;;;55.83;34.40;;;;;;;5.77;100.00;98558.08;2143948;83;21062;-84
2021/12/30 09:51:26;;;;;;;51.18;32.58;;;;;;;5.79;100.00;98563.12;2143863;83;21051;-81
2021/12/30 09:54:27;;;;;;;50.17;30.72;;;;;;;5.78;100.00;98555.81;2144166;83;20990;-87
2021/12/30 09:57:28;;;;;;;52.45;30.97;;;;;;;5.82;100.00;98556.31;2143999;83;20987;-87
2021/12/30 10:00:28;;;;;;;42.75;27.35;;;;;;;5.85;100.00;98557.30;2144029;83;21051;-84
2021/12/30 10:03:30;;;;;;;38.20;26.20;;;;;;;5.88;100.00;98564.31;2143966;83;20967;-87
2021/12/30 10:06:31;;;;;;;42.88;27.80;;;;;;;5.91;100.00;98560.62;2143972;83;20959;-84
2021/12/30 10:09:31;;;;;;;38.08;24.90;;;;;;;5.92;100.00;98557.05;2144050;83;21058;-86
2021/12/30 10:12:32;;;;;;;37.90;25.50;;;;;;;5.95;100.00;98569.27;2143906;83;21011;-84
2021/12/30 10:15:33;;;;;;;40.63;24.92;;;;;;;5.97;100.00;98572.52;2143978;83;21110;-80
2021/12/30 10:18:34;;;;;;;38.78;26.40;;;;;;;5.97;100.00;98576.42;2144145;83;21556;-85
2021/12/30 10:21:35;;;;;;;34.67;23.18;;;;;;;5.97;100.00;98573.82;2143970;83;21058;-83
2021/12/30 10:24:36;;;;;;;35.75;23.42;;;;;;;5.93;100.00;98574.27;2143991;83;21018;-82
2021/12/30 10:27:38;;;;;;;36.75;24.32;;;;;;;5.88;100.00;98563.50;2143846;83;21007;-84
2021/12/30 10:30:39;;;;;;;37.95;24.77;;;;;;;5.86;100.00;98558.47;2143868;83;21497;-82
2021/12/30 10:33:40;;;;;;;36.30;24.72;;;;;;;5.90;100.00;98560.26;2123768;81;21039;-85
2021/12/30 10:36:41;;;;;;;34.43;24.18;;;;;;;6.02;100.00;98555.64;2120029;83;20952;-81
2021/12/30 10:39:42;;;;;;;43.92;25.95;;;;;;;6.09;100.00;98550.97;2119992;83;21103;-80
2021/12/30 10:42:43;;;;;;;39.78;26.75;;;;;;;6.18;100.00;98547.44;2120233;83;21000;-85
2021/12/30 10:45:44;;;;;;;37.65;25.72;;;;;;;6.25;100.00;98547.64;2120106;84;20992;-79
2021/12/30 10:48:45;;;;;;;37.20;23.60;;;;;;;6.32;100.00;98551.74;2120197;83;21258;-82
2021/12/30 10:51:47;;;;;;;54.05;32.48;;;;;;;6.35;100.00;98546.22;2120663;83;20992;-79
2021/12/30 10:54:48;;;;;;;50.65;31.45;;;;;;;6.37;100.00;98541.67;2120875;84;21032;-80
2021/12/30 10:57:49;;;;;;;46.77;29.77;;;;;;;6.37;100.00;98548.17;2120242;83;21031;-87
2021/12/30 11:00:50;;;;;;;41.45;26.05;;;;;;;6.38;100.00;98550.61;2120064;83;21019;-83
2021/12/30 11:03:51;;;;;;;36.40;24.43;;;;;;;6.40;100.00;98547.39;2120122;84;21047;-88
2021/12/30 11:06:52;;;;;;;41.02;26.40;;;;;;;6.44;100.00;98544.80;2119964;84;21012;-81
2021/12/30 11:09:53;;;;;;;39.80;26.50;;;;;;;6.48;100.00;98549.18;2120079;84;20944;-83
2021/12/30 11:12:54;;;;;;;41.55;27.48;;;;;;;6.47;100.00;98553.57;2120179;84;20948;-86
2021/12/30 11:15:54;;;;;;;44.45;28.10;;;;;;;6.44;100.00;98550.00;2120389;84;20988;-85
2021/12/30 11:19:00;;;;;;;39.38;25.90;;;;;;;6.44;100.00;98547.39;2119978;83;21062;-82
2021/12/30 11:21:58;;;;;;;40.60;26.45;;;;;;;6.50;100.00;98538.97;2119248;84;21072;-83
2021/12/30 11:24:59;;;;;;;40.20;26.20;;;;;;;6.55;100.00;98537.19;2119980;84;21046;-87
2021/12/30 11:28:00;;;;;;;34.73;24.65;;;;;;;6.51;100.00;98539.30;2120147;83;21060;-82
2021/12/30 11:31:01;;;;;;;42.80;26.80;;;;;;;6.46;100.00;98539.42;2120190;84;20987;-82
2021/12/30 11:34:02;;;;;;;40.67;27.05;;;;;;;6.47;100.00;98533.25;2140721;83;20998;-88
2021/12/30 11:37:03;;;;;;;38.58;26.70;;;;;;;6.51;100.00;98532.80;2144145;83;21061;-89
2021/12/30 11:40:04;;;;;;;37.73;25.10;;;;;;;6.54;100.00;98530.35;2144350;83;21066;-90
2021/12/30 11:43:05;;;;;;;34.55;23.18;;;;;;;6.55;100.00;98517.67;2144235;83;20983;-85
2021/12/30 11:46:05;;;;;;;37.20;25.17;;;;;;;6.58;100.00;98515.23;2144264;83;21001;-84
2021/12/30 11:49:06;;;;;;;38.53;24.52;;;;;;;6.64;100.00;98515.42;2144135;83;20987;-87
2021/12/30 11:52:07;;;;;;;34.10;24.00;;;;;;;6.68;100.00;98507.64;2144214;83;21573;-88
2021/12/30 11:55:08;;;;;;;35.17;24.60;;;;;;;6.72;100.00;98500.31;2144016;83;21081;-88
2021/12/30 11:58:09;;;;;;;33.58;22.75;;;;;;;6.74;100.00;98504.86;2144220;83;21003;-85
2021/12/30 12:01:10;;;;;;;30.68;21.02;;;;;;;6.76;100.00;98514.13;2144023;83;21105;-87
2021/12/30 12:04:10;;;;;;;27.52;21.62;;;;;;;6.71;100.00;98506.50;2144049;83;21006;-86
2021/12/30 12:07:11;;;;;;;32.28;23.02;;;;;;;6.67;100.00;98500.78;2144112;83;21051;-87
2021/12/30 12:10:12;;;;;;;38.15;23.27;;;;;;;6.62;100.00;98501.77;2143970;83;21018;-87
2021/12/30 12:13:13;;;;;;;35.40;22.80;;;;;;;6.59;100.00;98507.78;2143945;83;20974;-87
2021/12/30 12:16:14;;;;;;;44.23;27.82;;;;;;;6.54;100.00;98513.45;2143755;83;20974;-87
2021/12/30 12:19:15;;;;;;;34.53;23.92;;;;;;;6.49;100.00;98508.73;2143789;83;20995;-87
2021/12/30 12:22:16;;;;;;;38.08;24.27;;;;;;;6.47;100.00;98518.94;2143957;83;20955;-86
2021/12/30 12:25:18;;;;;;;34.95;22.85;;;;;;;6.46;100.00;98520.73;2143856;83;21031;-86
2021/12/30 12:28:19;;;;;;;39.80;24.27;;;;;;;6.46;100.00;98522.03;2143931;83;20967;-87
2021/12/30 12:31:20;;;;;;;38.92;23.15;;;;;;;6.45;100.00;98523.50;2144040;83;21589;-87
2021/12/30 12:34:20;;;;;;;42.55;27.40;;;;;;;6.44;100.00;98520.57;2143830;83;21019;-87
2021/12/30 12:37:21;;;;;;;48.80;28.50;;;;;;;6.44;100.00;98518.78;2143958;83;20982;-88
2021/12/30 12:40:22;;;;;;;44.30;26.12;;;;;;;6.44;100.00;98517.48;2143895;83;21067;-87
2021/12/30 12:43:23;;;;;;;38.35;25.08;;;;;;;6.37;100.00;98524.28;2143821;83;20967;-86
2021/12/30 12:46:24;;;;;;;38.25;23.55;;;;;;;6.37;100.00;98524.28;2144034;83;21002;-87
2021/12/30 12:49:25;;;;;;;39.23;25.23;;;;;;;6.38;100.00;98517.29;2144178;83;21074;-84
2021/12/30 12:52:26;;;;;;;35.43;22.37;;;;;;;6.36;100.00;98516.16;2143905;83;21502;-83
2021/12/30 12:55:27;;;;;;;35.85;22.52;;;;;;;6.34;100.00;98515.98;2143985;83;20983;-86
2021/12/30 12:58:28;;;;;;;36.48;23.27;;;;;;;6.36;100.00;98516.64;2144036;83;21022;-82
2021/12/30 13:01:31;;;;;;;47.50;24.27;;;;;;;6.33;100.00;98520.38;2143863;83;20990;-81
2021/12/30 13:04:32;;;;;;;52.10;26.82;;;;;;;6.33;100.00;98526.88;2143886;83;21454;-81
2021/12/30 13:07:33;;;;;;;84.75;39.35;;;;;;;6.33;100.00;98532.08;2144114;83;21007;-86
2021/12/30 13:10:34;;;;;;;47.43;24.25;;;;;;;6.32;100.00;98525.74;2144228;83;20994;-87
2021/12/30 13:13:35;;;;;;;37.78;22.05;;;;;;;6.32;100.00;98534.84;2144177;83;21027;-82
2021/12/30 13:16:35;;;;;;;62.50;33.40;;;;;;;6.36;100.00;98546.55;2144270;83;21038;-83
2021/12/30 13:19:36;;;;;;;56.10;28.75;;;;;;;6.41;100.00;98543.00;2144023;83;21034;-82
2021/12/30 13:22:37;;;;;;;36.83;19.73;;;;;;;6.45;100.00;98535.20;2144513;83;21041;-81
2021/12/30 13:25:38;;;;;;;33.92;15.38;;;;;;;6.46;100.00;98543.33;2143911;83;20959;-80
2021/12/30 13:28:39;;;;;;;27.32;16.12;;;;;;;6.46;100.00;98539.42;2143761;83;20971;-81
2021/12/30 13:31:40;;;;;;;20.30;12.58;;;;;;;6.47;100.00;98552.27;2143769;83;21029;-81
2021/12/30 13:34:41;;;;;;;18.40;11.65;;;;;;;6.44;100.00;98564.30;2142015;83;20964;-81
2021/12/30 13:37:41;;;;;;;18.20;12.25;;;;;;;6.47;100.00;98564.47;2141562;82;20959;-82
2021/12/30 13:40:43;;;;;;;24.63;13.43;;;;;;;6.46;100.00;98570.64;2141610;82;20956;-82
2021/12/30 13:43:44;;;;;;;43.58;27.15;;;;;;;6.47;100.00;98568.36;2141740;82;20967;-83
2021/12/30 13:46:45;;;;;;;57.65;29.27;;;;;;;6.45;100.00;98566.41;2141729;82;21462;-84
2021/12/30 13:49:46;;;;;;;29.18;17.42;;;;;;;6.45;100.00;98571.13;2141792;82;21261;-85